createdAt,value
2023-01-31T00:01:38.623Z,2.09
2023-01-31T00:04:40.217Z,2.45
2023-01-31T00:07:41.661Z,2.50
2023-01-31T00:10:43.248Z,2.62
2023-01-31T00:13:44.903Z,2.46
2023-01-31T00:16:46.732Z,2.30
2023-01-31T00:19:48.228Z,2.36
2023-01-31T00:22:49.698Z,2.23
2023-01-31T00:25:51.263Z,2.20
2023-01-31T00:28:54.236Z,2.14
2023-01-31T00:31:55.910Z,2.03
2023-01-31T00:34:57.455Z,1.93
2023-01-31T00:38:00.186Z,1.67
2023-01-31T00:41:01.621Z,1.68
2023-01-31T00:44:03.175Z,1.78
2023-01-31T00:47:04.659Z,2.05
2023-01-31T00:50:06.264Z,2.21
2023-01-31T00:53:08.176Z,1.81
2023-01-31T00:56:11.985Z,2.35
2023-01-31T00:59:13.526Z,2.37
2023-01-31T01:02:15.141Z,2.40
2023-01-31T01:05:16.695Z,2.18
2023-01-31T01:08:18.173Z,1.78
2023-01-31T01:11:21.955Z,1.97
2023-01-31T01:14:23.462Z,1.93
2023-01-31T01:17:25.000Z,2.06
2023-01-31T01:20:26.442Z,1.60
2023-01-31T01:23:29.938Z,1.64
2023-01-31T01:26:32.791Z,1.38
2023-01-31T01:29:35.007Z,1.82
2023-01-31T01:32:36.476Z,2.05
2023-01-31T01:35:37.935Z,1.84
2023-01-31T01:38:40.451Z,1.78
2023-01-31T01:41:41.973Z,1.56
2023-01-31T01:44:54.201Z,1.77
2023-01-31T01:47:58.057Z,1.82
2023-01-31T01:50:59.516Z,1.67
2023-01-31T01:54:03.576Z,1.93
2023-01-31T01:57:05.494Z,1.39
2023-01-31T02:00:15.661Z,1.84
2023-01-31T02:03:17.169Z,1.43
2023-01-31T02:06:18.713Z,1.51
2023-01-31T02:09:29.155Z,1.65
2023-01-31T02:12:30.870Z,1.73
2023-01-31T02:15:32.356Z,1.98
2023-01-31T02:18:34.056Z,2.00
2023-01-31T02:21:47.826Z,1.79
2023-01-31T02:25:23.875Z,1.83
2023-01-31T02:28:53.215Z,1.88
2023-01-31T02:32:14.986Z,1.76
2023-01-31T02:35:31.791Z,1.69
2023-01-31T02:39:20.322Z,1.62
2023-01-31T02:42:47.942Z,1.43
2023-01-31T02:45:57.286Z,1.34
2023-01-31T02:49:04.602Z,1.15
2023-01-31T02:52:16.186Z,0.97
2023-01-31T02:56:07.855Z,0.74
2023-01-31T02:59:22.002Z,0.44
2023-01-31T03:02:23.594Z,0.91
2023-01-31T03:05:25.912Z,0.85
2023-01-31T03:08:27.566Z,0.75
2023-01-31T03:12:14.448Z,0.55
2023-01-31T03:15:57.265Z,0.56
2023-01-31T03:19:16.727Z,0.37
2023-01-31T03:22:24.030Z,0.41
2023-01-31T03:25:27.380Z,0.54
2023-01-31T03:28:31.267Z,0.78
2023-01-31T03:31:36.577Z,0.72
2023-01-31T03:34:38.056Z,1.16
2023-01-31T03:38:11.859Z,0.80
2023-01-31T03:41:27.163Z,0.60
2023-01-31T03:44:34.801Z,0.80
2023-01-31T03:47:41.167Z,1.07
2023-01-31T03:50:53.404Z,1.29
2023-01-31T03:54:04.387Z,1.20
2023-01-31T03:57:21.268Z,1.05
2023-01-31T04:00:23.055Z,1.06
2023-01-31T04:03:28.716Z,0.78
2023-01-31T04:06:30.205Z,1.05
2023-01-31T04:09:32.110Z,1.07
2023-01-31T04:12:37.332Z,1.11
2023-01-31T04:15:38.826Z,0.74
2023-01-31T04:18:40.380Z,0.84
2023-01-31T04:21:41.903Z,0.91
2023-01-31T04:24:43.407Z,0.41
2023-01-31T04:27:44.914Z,0.31
2023-01-31T04:30:46.360Z,0.33
2023-01-31T04:33:47.944Z,0.46
2023-01-31T04:36:49.415Z,0.36
2023-01-31T04:39:50.898Z,0.15
2023-01-31T04:42:52.345Z,0.38
2023-01-31T04:45:53.829Z,0.36
2023-01-31T04:48:55.369Z,0.87
2023-01-31T04:51:56.805Z,0.97
2023-01-31T04:54:58.285Z,0.84
2023-01-31T04:57:59.746Z,0.64
2023-01-31T05:01:01.482Z,0.15
2023-01-31T05:04:02.967Z,-0.08
2023-01-31T05:07:04.409Z,-0.12
2023-01-31T05:10:06.749Z,-0.01
2023-01-31T05:13:08.313Z,0.05
2023-01-31T05:16:11.071Z,0.48
2023-01-31T05:19:15.562Z,0.21
2023-01-31T05:22:17.736Z,-0.04
2023-01-31T05:25:19.414Z,0.02
2023-01-31T05:28:21.032Z,0.01
2023-01-31T05:31:22.832Z,-0.08
2023-01-31T05:34:25.456Z,-0.22
2023-01-31T05:37:26.899Z,-0.29
2023-01-31T05:40:28.381Z,-0.01
2023-01-31T05:43:29.821Z,0.11
2023-01-31T05:46:31.304Z,0.21
2023-01-31T05:49:33.519Z,-0.43
2023-01-31T05:52:35.244Z,-0.67
2023-01-31T05:55:36.703Z,-0.65
2023-01-31T05:58:38.180Z,-0.74
2023-01-31T06:01:39.763Z,-0.81
2023-01-31T06:04:41.248Z,-0.49
2023-01-31T06:07:42.696Z,-0.77
2023-01-31T06:10:44.140Z,-0.49
2023-01-31T06:13:45.637Z,-0.45
2023-01-31T06:16:47.128Z,-0.32
2023-01-31T06:19:48.613Z,-0.31
2023-01-31T06:22:50.076Z,-0.50
2023-01-31T06:25:52.102Z,-0.78
2023-01-31T06:28:53.580Z,-0.70
2023-01-31T06:31:55.068Z,-0.85
2023-01-31T06:34:56.621Z,-0.08
2023-01-31T06:37:58.221Z,-0.02
2023-01-31T06:40:59.780Z,-0.28
2023-01-31T06:44:01.452Z,-0.12
2023-01-31T06:47:02.929Z,-0.45
2023-01-31T06:50:04.659Z,-0.35
2023-01-31T06:53:06.105Z,-0.54
2023-01-31T06:56:08.050Z,-0.43
2023-01-31T06:59:09.607Z,-0.27
2023-01-31T07:02:11.364Z,-0.44
2023-01-31T07:05:12.895Z,-0.65
2023-01-31T07:08:14.633Z,-0.44
2023-01-31T07:11:16.224Z,-0.61
2023-01-31T07:14:17.706Z,-0.55
2023-01-31T07:17:21.037Z,-0.55
2023-01-31T07:20:22.521Z,-0.83
2023-01-31T07:23:24.043Z,-0.71
2023-01-31T07:26:25.580Z,-0.48
2023-01-31T07:29:27.050Z,-0.15
2023-01-31T07:32:30.243Z,-0.61
2023-01-31T07:35:32.216Z,-0.67
2023-01-31T07:38:34.317Z,-0.67
2023-01-31T07:41:36.220Z,-0.51
2023-01-31T07:44:37.694Z,-0.57
2023-01-31T07:47:39.243Z,-0.43
2023-01-31T07:50:40.800Z,-0.41
2023-01-31T07:53:43.027Z,-0.17
2023-01-31T07:56:44.511Z,-0.23
2023-01-31T07:59:46.060Z,0.03
2023-01-31T08:03:05.796Z,-0.48
2023-01-31T08:06:09.066Z,-0.49
2023-01-31T08:09:10.726Z,-0.77
2023-01-31T08:12:12.433Z,-0.73
2023-01-31T08:15:13.886Z,-0.66
2023-01-31T08:18:15.347Z,-0.24
2023-01-31T08:21:16.943Z,-0.29
2023-01-31T08:24:18.398Z,-0.33
2023-01-31T08:27:19.954Z,-0.21
2023-01-31T08:30:21.559Z,-0.08
2023-01-31T08:33:23.488Z,0.17
2023-01-31T08:36:26.459Z,0.42
2023-01-31T08:39:28.012Z,0.45
2023-01-31T08:42:29.467Z,-0.03
2023-01-31T08:45:31.422Z,-0.01
2023-01-31T08:48:36.663Z,0.27
2023-01-31T08:51:38.147Z,0.43
2023-01-31T08:54:39.596Z,0.62
2023-01-31T08:57:52.608Z,0.84
2023-01-31T09:01:03.267Z,1.22
2023-01-31T09:04:04.878Z,1.22
2023-01-31T09:07:06.318Z,1.43
2023-01-31T09:10:08.011Z,1.64
2023-01-31T09:13:09.557Z,2.34
2023-01-31T09:16:11.784Z,5.10
2023-01-31T09:19:13.269Z,5.95
2023-01-31T09:22:14.797Z,7.03
2023-01-31T09:25:16.331Z,7.71
2023-01-31T09:28:17.771Z,8.80
2023-01-31T09:31:20.791Z,8.47
2023-01-31T09:34:22.408Z,5.60
2023-01-31T09:37:23.916Z,5.99
2023-01-31T09:40:26.514Z,7.57
2023-01-31T09:43:33.973Z,5.65
2023-01-31T09:46:37.613Z,6.62
2023-01-31T09:49:46.272Z,7.44
2023-01-31T09:52:48.873Z,8.55
2023-01-31T09:56:09.069Z,7.14
2023-01-31T09:59:19.261Z,9.41
2023-01-31T10:02:49.111Z,7.72
2023-01-31T10:06:15.880Z,5.14
2023-01-31T10:09:40.713Z,4.22
2023-01-31T10:12:47.832Z,3.09
2023-01-31T10:15:55.327Z,3.88
2023-01-31T10:19:02.567Z,4.31
2023-01-31T10:22:07.039Z,3.28
2023-01-31T10:25:27.198Z,3.43
2023-01-31T10:28:38.837Z,2.91
2023-01-31T10:31:51.301Z,3.04
2023-01-31T10:35:04.202Z,3.47
2023-01-31T10:38:21.735Z,3.01
2023-01-31T10:41:46.123Z,2.98
2023-01-31T10:44:54.025Z,2.58
2023-01-31T10:48:01.419Z,3.28
2023-01-31T10:51:34.118Z,2.44
2023-01-31T10:54:54.418Z,3.80
2023-01-31T10:57:55.913Z,3.16
2023-01-31T11:00:57.745Z,3.06
2023-01-31T11:04:00.414Z,3.38
2023-01-31T11:07:01.792Z,3.51
2023-01-31T11:10:20.391Z,4.09
2023-01-31T11:13:23.146Z,4.12
2023-01-31T11:16:24.832Z,4.29
2023-01-31T11:19:35.944Z,4.01
2023-01-31T11:22:37.944Z,4.46
2023-01-31T11:25:39.404Z,4.15
2023-01-31T11:28:41.084Z,3.29
2023-01-31T11:31:43.098Z,3.16
2023-01-31T11:35:04.711Z,3.16
2023-01-31T11:38:12.187Z,3.42
2023-01-31T11:41:34.594Z,3.35
2023-01-31T11:44:36.092Z,3.54
2023-01-31T11:47:48.947Z,3.89
2023-01-31T11:51:16.585Z,3.83
2023-01-31T11:54:20.386Z,3.30
2023-01-31T11:57:26.820Z,2.68
2023-01-31T12:00:31.138Z,2.62
2023-01-31T12:03:32.693Z,2.74
2023-01-31T12:06:35.731Z,2.69
2023-01-31T12:09:42.750Z,2.67
2023-01-31T12:12:45.406Z,2.72
2023-01-31T12:15:51.386Z,3.40
2023-01-31T12:19:11.221Z,3.26
2023-01-31T12:22:18.055Z,3.21
2023-01-31T12:25:28.229Z,3.35
2023-01-31T12:28:47.962Z,3.06
2023-01-31T12:32:03.546Z,2.94
2023-01-31T12:35:10.389Z,3.25
2023-01-31T12:38:26.962Z,3.02
2023-01-31T12:41:33.361Z,3.21
2023-01-31T12:44:43.988Z,4.35
2023-01-31T12:48:03.649Z,3.51
2023-01-31T12:51:51.833Z,3.32
2023-01-31T12:55:13.604Z,3.36
2023-01-31T12:58:34.682Z,3.19
2023-01-31T13:02:07.627Z,3.35
2023-01-31T13:05:27.747Z,3.88
2023-01-31T13:08:33.345Z,3.46
2023-01-31T13:11:44.315Z,3.12
2023-01-31T13:15:04.143Z,3.17
2023-01-31T13:18:05.834Z,3.34
2023-01-31T13:21:08.386Z,3.34
2023-01-31T13:24:13.648Z,3.39
2023-01-31T13:27:38.191Z,4.27
2023-01-31T13:30:43.257Z,3.89
2023-01-31T13:33:54.602Z,4.53
2023-01-31T13:37:01.604Z,3.86
2023-01-31T13:40:24.424Z,3.61
2023-01-31T13:43:25.920Z,3.44
2023-01-31T13:46:39.166Z,3.73
2023-01-31T13:49:50.402Z,3.96
2023-01-31T13:52:53.000Z,3.50
2023-01-31T13:55:54.368Z,3.67
2023-01-31T13:58:56.092Z,4.56
2023-01-31T14:01:59.423Z,3.81
2023-01-31T14:05:28.246Z,3.53
2023-01-31T14:08:49.845Z,3.28
2023-01-31T14:11:51.372Z,3.53
2023-01-31T14:14:53.776Z,3.50
2023-01-31T14:17:55.070Z,4.36
2023-01-31T14:20:56.559Z,3.70
2023-01-31T14:23:59.077Z,3.82
2023-01-31T14:27:00.645Z,3.85
2023-01-31T14:30:05.498Z,4.10
2023-01-31T14:33:11.310Z,3.64
2023-01-31T14:36:21.799Z,3.81
2023-01-31T14:39:49.677Z,3.67
2023-01-31T14:43:04.025Z,3.53
2023-01-31T14:46:30.201Z,4.22
2023-01-31T14:49:48.849Z,3.93
2023-01-31T14:52:59.831Z,3.58
2023-01-31T14:56:17.615Z,3.58
2023-01-31T14:59:44.690Z,3.76
2023-01-31T15:02:54.150Z,3.82
2023-01-31T15:05:57.018Z,3.58
2023-01-31T15:09:24.467Z,3.95
2023-01-31T15:12:59.932Z,3.68
2023-01-31T15:16:16.522Z,3.55
2023-01-31T15:19:21.352Z,4.22
2023-01-31T15:22:22.857Z,3.93
2023-01-31T15:25:39.575Z,3.58
2023-01-31T15:28:42.039Z,3.57
2023-01-31T15:31:44.857Z,3.62
2023-01-31T15:34:56.094Z,3.60
2023-01-31T15:38:20.567Z,3.67
2023-01-31T15:41:23.166Z,3.56
2023-01-31T15:44:25.149Z,3.35
2023-01-31T15:47:26.606Z,3.35
2023-01-31T15:50:32.431Z,3.44
2023-01-31T15:53:33.963Z,3.52
2023-01-31T15:56:37.625Z,3.43
2023-01-31T15:59:39.250Z,3.44
2023-01-31T16:02:41.443Z,3.35
2023-01-31T16:05:43.135Z,3.39
2023-01-31T16:08:44.590Z,3.36
2023-01-31T16:11:46.188Z,3.55
2023-01-31T16:14:48.186Z,3.38
2023-01-31T16:17:49.828Z,3.30
2023-01-31T16:20:52.721Z,3.27
2023-01-31T16:24:14.760Z,4.14
2023-01-31T16:27:16.620Z,3.70
2023-01-31T16:30:18.866Z,3.49
2023-01-31T16:33:23.651Z,3.38
2023-01-31T16:36:27.796Z,3.36
2023-01-31T16:39:33.958Z,3.49
2023-01-31T16:42:35.969Z,3.54
2023-01-31T16:45:37.425Z,3.51
2023-01-31T16:48:40.207Z,3.49
2023-01-31T16:51:42.761Z,3.52
2023-01-31T16:54:51.300Z,3.40
2023-01-31T16:57:53.838Z,3.43
2023-01-31T17:00:56.923Z,3.55
2023-01-31T17:04:06.447Z,3.25
2023-01-31T17:07:19.169Z,3.12
2023-01-31T17:10:27.202Z,3.08
2023-01-31T17:13:28.667Z,2.93
2023-01-31T17:16:30.137Z,3.04
2023-01-31T17:19:31.579Z,2.99
2023-01-31T17:22:33.027Z,3.14
2023-01-31T17:25:36.484Z,3.15
2023-01-31T17:28:38.044Z,3.10
2023-01-31T17:31:39.624Z,3.27
2023-01-31T17:34:41.307Z,3.18
2023-01-31T17:37:42.746Z,3.16
2023-01-31T17:40:44.268Z,4.14
2023-01-31T17:43:45.714Z,3.44
2023-01-31T17:46:47.175Z,3.22
2023-01-31T17:49:48.657Z,3.30
2023-01-31T17:52:50.307Z,3.34
2023-01-31T17:55:51.854Z,3.17
2023-01-31T17:58:53.310Z,3.17
2023-01-31T18:01:55.083Z,3.24
2023-01-31T18:04:56.684Z,2.84
2023-01-31T18:07:59.084Z,3.04
2023-01-31T18:11:08.274Z,3.17
2023-01-31T18:14:10.695Z,3.10
2023-01-31T18:17:12.177Z,3.11
2023-01-31T18:20:13.635Z,3.15
2023-01-31T18:23:15.085Z,3.11
2023-01-31T18:26:17.733Z,3.06
2023-01-31T18:29:25.266Z,3.12
2023-01-31T18:32:26.719Z,3.13
2023-01-31T18:35:28.249Z,3.03
2023-01-31T18:38:29.919Z,3.09
2023-01-31T18:41:31.370Z,3.09
2023-01-31T18:44:32.866Z,2.85
2023-01-31T18:47:34.344Z,2.66
2023-01-31T18:50:36.825Z,2.67
2023-01-31T18:53:39.781Z,2.84
2023-01-31T18:56:41.554Z,2.79
2023-01-31T18:59:43.088Z,2.86
2023-01-31T19:02:49.745Z,2.83
2023-01-31T19:05:51.253Z,2.82
2023-01-31T19:08:53.669Z,2.89
2023-01-31T19:11:55.121Z,2.79
2023-01-31T19:14:56.632Z,2.77
2023-01-31T19:17:58.066Z,2.81
2023-01-31T19:20:59.610Z,3.22
2023-01-31T19:24:02.554Z,3.24
2023-01-31T19:27:04.081Z,3.01
2023-01-31T19:30:06.173Z,2.92
2023-01-31T19:33:08.135Z,2.81
2023-01-31T19:36:10.329Z,2.70
2023-01-31T19:39:12.127Z,2.67
2023-01-31T19:42:13.592Z,2.71
2023-01-31T19:45:19.843Z,2.72
2023-01-31T19:48:24.350Z,2.97
2023-01-31T19:51:25.849Z,3.05
2023-01-31T19:54:28.100Z,3.03
2023-01-31T19:57:29.820Z,3.08
2023-01-31T20:00:31.451Z,3.11
2023-01-31T20:03:32.917Z,2.87
2023-01-31T20:06:34.434Z,3.11
2023-01-31T20:09:35.888Z,3.16
2023-01-31T20:12:37.397Z,3.15
2023-01-31T20:15:38.883Z,3.10
2023-01-31T20:18:40.647Z,3.10
2023-01-31T20:21:42.138Z,3.22
2023-01-31T20:24:43.596Z,2.95
2023-01-31T20:27:45.070Z,2.82
2023-01-31T20:30:46.708Z,3.06
2023-01-31T20:33:49.886Z,3.20
2023-01-31T20:36:51.327Z,3.32
2023-01-31T20:39:52.839Z,3.27
2023-01-31T20:42:54.331Z,3.17
2023-01-31T20:46:03.404Z,3.06
2023-01-31T20:49:04.906Z,3.06
2023-01-31T20:52:06.348Z,2.82
2023-01-31T20:55:08.238Z,3.36
2023-01-31T20:58:09.693Z,3.23
2023-01-31T21:01:11.480Z,2.97
2023-01-31T21:04:14.030Z,2.95
2023-01-31T21:07:15.537Z,2.96
2023-01-31T21:10:17.410Z,2.83
2023-01-31T21:13:19.244Z,2.73
2023-01-31T21:16:20.729Z,2.82
2023-01-31T21:19:22.194Z,2.95
2023-01-31T21:22:23.681Z,3.11
2023-01-31T21:25:25.148Z,3.11
2023-01-31T21:28:26.803Z,2.98
2023-01-31T21:31:29.278Z,2.88
2023-01-31T21:34:30.868Z,2.78
2023-01-31T21:37:32.400Z,2.75
2023-01-31T21:40:33.876Z,2.66
2023-01-31T21:43:36.105Z,2.43
2023-01-31T21:46:37.841Z,2.43
2023-01-31T21:49:39.334Z,2.56
2023-01-31T21:52:40.778Z,2.39
2023-01-31T21:55:42.273Z,2.43
2023-01-31T21:58:44.452Z,2.37
2023-01-31T22:01:45.946Z,2.29
2023-01-31T22:04:47.438Z,2.38
2023-01-31T22:07:48.937Z,2.36
2023-01-31T22:10:50.386Z,2.71
2023-01-31T22:13:55.552Z,2.47
2023-01-31T22:16:57.514Z,2.43
2023-01-31T22:19:59.158Z,2.43
2023-01-31T22:23:00.598Z,2.34
2023-01-31T22:26:10.319Z,2.50
2023-01-31T22:29:13.387Z,2.58
2023-01-31T22:32:14.847Z,2.78
2023-01-31T22:35:16.360Z,2.51
2023-01-31T22:38:18.765Z,2.53
2023-01-31T22:41:20.476Z,2.54
2023-01-31T22:44:22.012Z,2.51
2023-01-31T22:47:24.156Z,2.55
2023-01-31T22:50:25.878Z,2.55
2023-01-31T22:53:28.747Z,2.45
2023-01-31T22:56:31.273Z,2.42
2023-01-31T22:59:32.713Z,2.53
2023-01-31T23:02:34.175Z,2.53
2023-01-31T23:05:39.197Z,2.44
2023-01-31T23:08:40.719Z,2.57
2023-01-31T23:11:42.198Z,2.65
2023-01-31T23:14:43.759Z,2.51
2023-01-31T23:17:45.508Z,2.54
2023-01-31T23:20:46.956Z,2.53
2023-01-31T23:23:48.453Z,2.62
2023-01-31T23:26:50.051Z,2.64
2023-01-31T23:29:51.519Z,2.67
2023-01-31T23:32:53.220Z,2.63
2023-01-31T23:35:54.727Z,2.67
2023-01-31T23:38:56.229Z,2.68
2023-01-31T23:41:57.731Z,2.84
2023-01-31T23:44:59.205Z,2.96
2023-01-31T23:48:00.682Z,2.95
2023-01-31T23:51:03.622Z,2.79
2023-01-31T23:54:05.091Z,2.72
2023-01-31T23:57:06.577Z,2.64
